Terminal Aerodrome Forecast
Issued by NWS

Home | Current Version | Previous Version | Graphics & Text | Print | Product List | Glossary On
Versions: 1 2 3 4 5 6 7 8 9 10 11 12 13 14
000
FTUS43 KMPX 081137
TAFRWF
TAF
KRWF 081137Z 0812/0912 29007KT P6SM SCT100
     FM081700 29012G18KT P6SM BKN015
     FM090100 32018G31KT P6SM OVC020
     FM090600 33012G21KT P6SM SCT025=

USA.gov is the U.S. government's official web portal to all federal, state and local government web resources and services.